CheckWX is a tool to help pilots better visualize weather data.  It is not intended as a substitute for an official pre-flight weather briefing.

17:34:31 UTC

CYOC METAR
Old Crow Airport
Old Crow, Canada
Current

35 mins ago

CYOC 211700Z 00000KT 20SM FEW014 BKN029TCU BKN033 11/07 A2999 RMK ST1TCU6SC1 ST TR SLP165
Observed
Jul-21 @ 17:00 UTC
Visibility
20 SM
Flight Rules
MVFR
Cloud Levels
  • Few at 1,400' AGL
  • Broken at 2,900' AGL
  • Broken at 3,300' AGL
Temperature
11°C / 52°F
Dewpoint
C / 45°F
Humidity
77%
Altimeter
29.99" Hg
Pressure
1015.62 hPa
Previous

2 hours ago

CYOC 211600Z 00000KT 20SM FEW013 BKN024 BKN032 BKN041 10/07 A3000 RMK ST1CU5SC2SC1 ST TR SC TR SLP169
Observed
Jul-21 @ 16:00 UTC
Visibility
20 SM
Flight Rules
MVFR
Cloud Levels
  • Few at 1,300' AGL
  • Broken at 2,400' AGL
  • Broken at 3,200' AGL
  • Broken at 4,100' AGL
Temperature
10°C / 50°F
Dewpoint
C / 45°F
Humidity
82%
Altimeter
30" Hg
Pressure
1015.92 hPa
Previous

3 hours ago

CYOC 211500Z 00000KT 20SM FEW013 SCT025 BKN031 BKN041 09/06 A3000 RMK ST1CU4SC2SC1 ST TR SLP170
Observed
Jul-21 @ 15:00 UTC
Visibility
20 SM
Flight Rules
VFR
Cloud Levels
  • Few at 1,300' AGL
  • Scattered at 2,500' AGL
  • Broken at 3,100' AGL
  • Broken at 4,100' AGL
Temperature
C / 48°F
Dewpoint
C / 43°F
Humidity
82%
Altimeter
30" Hg
Pressure
1015.92 hPa